sensor_id;sensor_type;location;lat;lon;timestamp;P1;durP1;ratioP1;P2;durP2;ratioP2
45296;SDS011;31040;51.622;10.420;2023-06-22T00:01:21;11.75;;;10.65;;
45296;SDS011;31040;51.622;10.420;2023-06-22T00:03:51;12.45;;;11.32;;
45296;SDS011;31040;51.622;10.420;2023-06-22T00:06:19;12.10;;;11.10;;
45296;SDS011;31040;51.622;10.420;2023-06-22T00:08:46;12.00;;;10.80;;
45296;SDS011;31040;51.622;10.420;2023-06-22T00:11:14;11.40;;;10.40;;
45296;SDS011;31040;51.622;10.420;2023-06-22T00:13:41;11.70;;;10.68;;
45296;SDS011;31040;51.622;10.420;2023-06-22T00:16:09;12.50;;;11.32;;
45296;SDS011;31040;51.622;10.420;2023-06-22T00:18:36;11.82;;;10.77;;
45296;SDS011;31040;51.622;10.420;2023-06-22T00:21:03;11.30;;;10.20;;
45296;SDS011;31040;51.622;10.420;2023-06-22T00:23:32;11.88;;;10.70;;
45296;SDS011;31040;51.622;10.420;2023-06-22T00:26:00;12.20;;;11.02;;
45296;SDS011;31040;51.622;10.420;2023-06-22T00:28:28;12.43;;;10.35;;
45296;SDS011;31040;51.622;10.420;2023-06-22T00:30:55;11.25;;;10.23;;
45296;SDS011;31040;51.622;10.420;2023-06-22T00:33:23;12.88;;;11.57;;
45296;SDS011;31040;51.622;10.420;2023-06-22T00:35:50;13.48;;;10.85;;
45296;SDS011;31040;51.622;10.420;2023-06-22T00:38:19;13.30;;;12.10;;
45296;SDS011;31040;51.622;10.420;2023-06-22T00:40:47;13.20;;;11.98;;
45296;SDS011;31040;51.622;10.420;2023-06-22T00:43:14;13.93;;;12.52;;
45296;SDS011;31040;51.622;10.420;2023-06-22T00:45:41;13.77;;;12.07;;
45296;SDS011;31040;51.622;10.420;2023-06-22T00:48:09;13.50;;;12.20;;
45296;SDS011;31040;51.622;10.420;2023-06-22T00:50:36;13.02;;;11.55;;
45296;SDS011;31040;51.622;10.420;2023-06-22T00:53:08;13.25;;;11.95;;
45296;SDS011;31040;51.622;10.420;2023-06-22T00:55:45;14.45;;;13.05;;
45296;SDS011;31040;51.622;10.420;2023-06-22T00:58:19;13.02;;;11.70;;
45296;SDS011;31040;51.622;10.420;2023-06-22T01:00:48;14.32;;;13.00;;
45296;SDS011;31040;51.622;10.420;2023-06-22T01:03:16;12.20;;;11.10;;
45296;SDS011;31040;51.622;10.420;2023-06-22T01:05:44;13.27;;;12.07;;
45296;SDS011;31040;51.622;10.420;2023-06-22T01:10:59;13.95;;;12.57;;
45296;SDS011;31040;51.622;10.420;2023-06-22T01:13:39;13.73;;;12.27;;
45296;SDS011;31040;51.622;10.420;2023-06-22T01:16:10;15.70;;;12.90;;
45296;SDS011;31040;51.622;10.420;2023-06-22T01:18:40;13.20;;;11.90;;
45296;SDS011;31040;51.622;10.420;2023-06-22T01:21:08;14.40;;;12.93;;
45296;SDS011;31040;51.622;10.420;2023-06-22T01:26:54;14.18;;;12.80;;
45296;SDS011;31040;51.622;10.420;2023-06-22T01:29:25;14.52;;;13.10;;
45296;SDS011;31040;51.622;10.420;2023-06-22T01:31:54;14.63;;;12.88;;
45296;SDS011;31040;51.622;10.420;2023-06-22T01:34:23;13.70;;;12.38;;
45296;SDS011;31040;51.622;10.420;2023-06-22T01:36:51;13.68;;;12.48;;
45296;SDS011;31040;51.622;10.420;2023-06-22T01:39:20;12.18;;;11.07;;
45296;SDS011;31040;51.622;10.420;2023-06-22T01:41:48;11.80;;;10.50;;
45296;SDS011;31040;51.622;10.420;2023-06-22T01:44:16;13.00;;;10.15;;
45296;SDS011;31040;51.622;10.420;2023-06-22T01:46:44;11.20;;;10.05;;
45296;SDS011;31040;51.622;10.420;2023-06-22T01:49:11;11.70;;;10.65;;
45296;SDS011;31040;51.622;10.420;2023-06-22T01:51:39;11.20;;;10.18;;
45296;SDS011;31040;51.622;10.420;2023-06-22T01:54:07;11.98;;;10.77;;
45296;SDS011;31040;51.622;10.420;2023-06-22T01:56:35;11.02;;;10.00;;
45296;SDS011;31040;51.622;10.420;2023-06-22T01:59:10;10.95;;;9.88;;
45296;SDS011;31040;51.622;10.420;2023-06-22T02:01:43;11.35;;;10.25;;
45296;SDS011;31040;51.622;10.420;2023-06-22T02:04:17;11.00;;;9.88;;
45296;SDS011;31040;51.622;10.420;2023-06-22T02:06:46;11.35;;;10.35;;
45296;SDS011;31040;51.622;10.420;2023-06-22T02:09:16;11.50;;;10.40;;
45296;SDS011;31040;51.622;10.420;2023-06-22T02:11:44;12.00;;;10.40;;
45296;SDS011;31040;51.622;10.420;2023-06-22T02:14:12;11.70;;;10.60;;
45296;SDS011;31040;51.622;10.420;2023-06-22T02:16:41;11.13;;;10.18;;
45296;SDS011;31040;51.622;10.420;2023-06-22T02:19:09;11.23;;;10.23;;
45296;SDS011;31040;51.622;10.420;2023-06-22T02:21:36;10.00;;;9.10;;
45296;SDS011;31040;51.622;10.420;2023-06-22T02:24:04;11.52;;;10.43;;
45296;SDS011;31040;51.622;10.420;2023-06-22T02:26:32;10.38;;;9.48;;
45296;SDS011;31040;51.622;10.420;2023-06-22T02:28:59;11.52;;;10.43;;
45296;SDS011;31040;51.622;10.420;2023-06-22T02:31:27;10.63;;;9.63;;
45296;SDS011;31040;51.622;10.420;2023-06-22T02:34:00;14.10;;;9.82;;
45296;SDS011;31040;51.622;10.420;2023-06-22T02:36:27;11.20;;;9.95;;
45296;SDS011;31040;51.622;10.420;2023-06-22T02:38:57;10.45;;;9.45;;
45296;SDS011;31040;51.622;10.420;2023-06-22T02:41:25;10.70;;;9.68;;
45296;SDS011;31040;51.622;10.420;2023-06-22T02:43:52;11.18;;;10.15;;
45296;SDS011;31040;51.622;10.420;2023-06-22T02:46:21;10.13;;;9.13;;
45296;SDS011;31040;51.622;10.420;2023-06-22T02:48:49;10.55;;;9.50;;
45296;SDS011;31040;51.622;10.420;2023-06-22T02:51:16;10.13;;;9.13;;
45296;SDS011;31040;51.622;10.420;2023-06-22T02:53:43;10.15;;;9.13;;
45296;SDS011;31040;51.622;10.420;2023-06-22T02:56:12;10.85;;;9.88;;
45296;SDS011;31040;51.622;10.420;2023-06-22T02:58:39;9.27;;;8.38;;
45296;SDS011;31040;51.622;10.420;2023-06-22T03:01:06;10.48;;;9.45;;
45296;SDS011;31040;51.622;10.420;2023-06-22T03:03:34;10.48;;;9.57;;
45296;SDS011;31040;51.622;10.420;2023-06-22T03:06:01;10.38;;;9.38;;
45296;SDS011;31040;51.622;10.420;2023-06-22T03:08:29;10.40;;;9.38;;
45296;SDS011;31040;51.622;10.420;2023-06-22T03:10:56;10.48;;;9.57;;
45296;SDS011;31040;51.622;10.420;2023-06-22T03:13:24;10.05;;;9.15;;
45296;SDS011;31040;51.622;10.420;2023-06-22T03:15:51;9.93;;;9.13;;
45296;SDS011;31040;51.622;10.420;2023-06-22T03:18:19;10.30;;;9.27;;
45296;SDS011;31040;51.622;10.420;2023-06-22T03:20:48;9.48;;;8.68;;
45296;SDS011;31040;51.622;10.420;2023-06-22T03:23:16;10.93;;;9.93;;
45296;SDS011;31040;51.622;10.420;2023-06-22T03:25:47;9.18;;;8.30;;
45296;SDS011;31040;51.622;10.420;2023-06-22T03:28:14;10.48;;;9.48;;
45296;SDS011;31040;51.622;10.420;2023-06-22T03:30:41;9.93;;;8.98;;
45296;SDS011;31040;51.622;10.420;2023-06-22T03:33:09;10.50;;;9.52;;
45296;SDS011;31040;51.622;10.420;2023-06-22T03:35:36;9.23;;;8.43;;
45296;SDS011;31040;51.622;10.420;2023-06-22T03:38:04;10.05;;;9.07;;
45296;SDS011;31040;51.622;10.420;2023-06-22T03:40:32;9.95;;;9.05;;
45296;SDS011;31040;51.622;10.420;2023-06-22T03:42:59;10.75;;;9.75;;
45296;SDS011;31040;51.622;10.420;2023-06-22T03:45:27;10.77;;;9.85;;
45296;SDS011;31040;51.622;10.420;2023-06-22T03:47:54;10.50;;;9.38;;
45296;SDS011;31040;51.622;10.420;2023-06-22T03:50:21;11.07;;;9.35;;
45296;SDS011;31040;51.622;10.420;2023-06-22T03:52:49;9.85;;;8.95;;
45296;SDS011;31040;51.622;10.420;2023-06-22T03:55:21;9.90;;;9.10;;
45296;SDS011;31040;51.622;10.420;2023-06-22T03:57:49;10.05;;;9.05;;
45296;SDS011;31040;51.622;10.420;2023-06-22T04:00:16;9.80;;;8.90;;
45296;SDS011;31040;51.622;10.420;2023-06-22T04:02:44;11.07;;;10.07;;
45296;SDS011;31040;51.622;10.420;2023-06-22T04:05:11;10.15;;;9.20;;
45296;SDS011;31040;51.622;10.420;2023-06-22T04:07:39;10.32;;;9.32;;
45296;SDS011;31040;51.622;10.420;2023-06-22T04:10:06;10.52;;;9.43;;
45296;SDS011;31040;51.622;10.420;2023-06-22T04:12:38;14.65;;;9.80;;
45296;SDS011;31040;51.622;10.420;2023-06-22T04:15:05;11.15;;;9.55;;
45296;SDS011;31040;51.622;10.420;2023-06-22T04:17:33;10.40;;;9.50;;
45296;SDS011;31040;51.622;10.420;2023-06-22T04:20:00;9.95;;;9.05;;
45296;SDS011;31040;51.622;10.420;2023-06-22T04:22:28;10.35;;;9.45;;
45296;SDS011;31040;51.622;10.420;2023-06-22T04:24:55;9.85;;;8.90;;
45296;SDS011;31040;51.622;10.420;2023-06-22T04:27:23;10.20;;;9.30;;
45296;SDS011;31040;51.622;10.420;2023-06-22T04:29:50;10.32;;;9.38;;
45296;SDS011;31040;51.622;10.420;2023-06-22T04:32:19;9.73;;;8.55;;
45296;SDS011;31040;51.622;10.420;2023-06-22T04:34:47;12.80;;;9.90;;
45296;SDS011;31040;51.622;10.420;2023-06-22T04:37:14;11.43;;;9.40;;
45296;SDS011;31040;51.622;10.420;2023-06-22T04:39:42;12.38;;;8.73;;
45296;SDS011;31040;51.622;10.420;2023-06-22T04:42:10;11.57;;;9.73;;
45296;SDS011;31040;51.622;10.420;2023-06-22T04:44:37;10.10;;;9.25;;
45296;SDS011;31040;51.622;10.420;2023-06-22T04:47:06;9.82;;;8.93;;
45296;SDS011;31040;51.622;10.420;2023-06-22T04:49:35;10.02;;;9.02;;
45296;SDS011;31040;51.622;10.420;2023-06-22T04:52:10;11.18;;;8.68;;
45296;SDS011;31040;51.622;10.420;2023-06-22T04:54:39;10.80;;;9.07;;
45296;SDS011;31040;51.622;10.420;2023-06-22T04:57:14;9.25;;;8.45;;
45296;SDS011;31040;51.622;10.420;2023-06-22T04:59:41;9.10;;;8.20;;
45296;SDS011;31040;51.622;10.420;2023-06-22T05:02:09;10.43;;;9.30;;
45296;SDS011;31040;51.622;10.420;2023-06-22T05:04:36;9.93;;;8.95;;
45296;SDS011;31040;51.622;10.420;2023-06-22T05:07:07;10.10;;;9.05;;
45296;SDS011;31040;51.622;10.420;2023-06-22T05:09:36;9.45;;;8.48;;
45296;SDS011;31040;51.622;10.420;2023-06-22T05:12:03;10.73;;;9.60;;
45296;SDS011;31040;51.622;10.420;2023-06-22T05:14:34;9.93;;;8.88;;
45296;SDS011;31040;51.622;10.420;2023-06-22T05:17:01;10.05;;;9.15;;
45296;SDS011;31040;51.622;10.420;2023-06-22T05:19:30;10.98;;;8.80;;
45296;SDS011;31040;51.622;10.420;2023-06-22T05:22:00;9.18;;;8.38;;
45296;SDS011;31040;51.622;10.420;2023-06-22T05:24:28;9.80;;;8.38;;
45296;SDS011;31040;51.622;10.420;2023-06-22T05:26:55;8.63;;;7.82;;
45296;SDS011;31040;51.622;10.420;2023-06-22T05:29:23;8.93;;;8.13;;
45296;SDS011;31040;51.622;10.420;2023-06-22T05:31:50;8.82;;;8.07;;
45296;SDS011;31040;51.622;10.420;2023-06-22T05:34:18;9.52;;;8.45;;
45296;SDS011;31040;51.622;10.420;2023-06-22T05:36:45;9.48;;;8.23;;
45296;SDS011;31040;51.622;10.420;2023-06-22T05:39:13;9.10;;;8.30;;
45296;SDS011;31040;51.622;10.420;2023-06-22T05:41:41;9.30;;;8.50;;
45296;SDS011;31040;51.622;10.420;2023-06-22T05:44:11;10.02;;;9.00;;
45296;SDS011;31040;51.622;10.420;2023-06-22T05:46:40;12.02;;;9.13;;
45296;SDS011;31040;51.622;10.420;2023-06-22T05:49:11;9.52;;;8.63;;
45296;SDS011;31040;51.622;10.420;2023-06-22T05:51:39;10.35;;;9.35;;
45296;SDS011;31040;51.622;10.420;2023-06-22T05:54:07;9.85;;;8.95;;
45296;SDS011;31040;51.622;10.420;2023-06-22T05:56:35;10.80;;;8.57;;
45296;SDS011;31040;51.622;10.420;2023-06-22T05:59:03;13.55;;;9.70;;
45296;SDS011;31040;51.622;10.420;2023-06-22T06:01:30;9.48;;;8.52;;
45296;SDS011;31040;51.622;10.420;2023-06-22T06:04:02;9.90;;;8.98;;
45296;SDS011;31040;51.622;10.420;2023-06-22T06:06:30;10.85;;;8.43;;
45296;SDS011;31040;51.622;10.420;2023-06-22T06:08:58;9.15;;;8.30;;
45296;SDS011;31040;51.622;10.420;2023-06-22T06:11:26;10.50;;;9.13;;
45296;SDS011;31040;51.622;10.420;2023-06-22T06:13:53;10.55;;;9.48;;
45296;SDS011;31040;51.622;10.420;2023-06-22T06:16:21;9.98;;;9.07;;
45296;SDS011;31040;51.622;10.420;2023-06-22T06:18:49;10.57;;;9.48;;
45296;SDS011;31040;51.622;10.420;2023-06-22T06:21:17;9.88;;;8.95;;
45296;SDS011;31040;51.622;10.420;2023-06-22T06:23:44;9.35;;;8.15;;
45296;SDS011;31040;51.622;10.420;2023-06-22T06:26:11;10.02;;;9.13;;
45296;SDS011;31040;51.622;10.420;2023-06-22T06:28:39;10.38;;;9.43;;
45296;SDS011;31040;51.622;10.420;2023-06-22T06:31:07;10.85;;;8.98;;
45296;SDS011;31040;51.622;10.420;2023-06-22T06:33:35;9.75;;;8.88;;
45296;SDS011;31040;51.622;10.420;2023-06-22T06:36:03;9.15;;;8.35;;
45296;SDS011;31040;51.622;10.420;2023-06-22T06:38:30;9.60;;;8.68;;
45296;SDS011;31040;51.622;10.420;2023-06-22T06:40:58;9.95;;;8.88;;
45296;SDS011;31040;51.622;10.420;2023-06-22T06:43:26;12.18;;;9.15;;
45296;SDS011;31040;51.622;10.420;2023-06-22T06:45:53;9.15;;;8.35;;
45296;SDS011;31040;51.622;10.420;2023-06-22T06:48:21;9.05;;;8.07;;
45296;SDS011;31040;51.622;10.420;2023-06-22T06:50:48;8.82;;;8.02;;
45296;SDS011;31040;51.622;10.420;2023-06-22T06:53:16;9.13;;;8.23;;
45296;SDS011;31040;51.622;10.420;2023-06-22T06:55:43;9.20;;;8.35;;
45296;SDS011;31040;51.622;10.420;2023-06-22T06:58:12;10.23;;;9.00;;
45296;SDS011;31040;51.622;10.420;2023-06-22T07:00:39;11.18;;;8.18;;
45296;SDS011;31040;51.622;10.420;2023-06-22T07:03:07;10.73;;;9.25;;
45296;SDS011;31040;51.622;10.420;2023-06-22T07:05:34;9.52;;;8.52;;
45296;SDS011;31040;51.622;10.420;2023-06-22T07:08:02;10.55;;;8.63;;
45296;SDS011;31040;51.622;10.420;2023-06-22T07:10:29;10.27;;;9.32;;
45296;SDS011;31040;51.622;10.420;2023-06-22T07:12:57;11.88;;;9.10;;
45296;SDS011;31040;51.622;10.420;2023-06-22T07:15:25;9.32;;;8.43;;
45296;SDS011;31040;51.622;10.420;2023-06-22T07:17:52;9.60;;;8.43;;
45296;SDS011;31040;51.622;10.420;2023-06-22T07:20:19;10.45;;;8.98;;
45296;SDS011;31040;51.622;10.420;2023-06-22T07:22:47;9.10;;;8.20;;
45296;SDS011;31040;51.622;10.420;2023-06-22T07:25:14;10.25;;;9.30;;
45296;SDS011;31040;51.622;10.420;2023-06-22T07:27:56;10.15;;;9.15;;
45296;SDS011;31040;51.622;10.420;2023-06-22T07:30:23;11.45;;;8.93;;
45296;SDS011;31040;51.622;10.420;2023-06-22T07:32:51;10.18;;;9.07;;
45296;SDS011;31040;51.622;10.420;2023-06-22T07:35:18;8.65;;;7.78;;
45296;SDS011;31040;51.622;10.420;2023-06-22T07:37:46;9.63;;;8.70;;
45296;SDS011;31040;51.622;10.420;2023-06-22T07:40:14;9.93;;;9.07;;
45296;SDS011;31040;51.622;10.420;2023-06-22T07:42:41;9.45;;;8.43;;
45296;SDS011;31040;51.622;10.420;2023-06-22T07:45:09;11.73;;;9.77;;
45296;SDS011;31040;51.622;10.420;2023-06-22T07:47:36;11.48;;;8.52;;
45296;SDS011;31040;51.622;10.420;2023-06-22T07:50:04;10.10;;;8.90;;
45296;SDS011;31040;51.622;10.420;2023-06-22T07:52:32;9.38;;;8.48;;
45296;SDS011;31040;51.622;10.420;2023-06-22T07:54:59;9.43;;;8.38;;
45296;SDS011;31040;51.622;10.420;2023-06-22T07:57:26;8.35;;;7.65;;
45296;SDS011;31040;51.622;10.420;2023-06-22T08:00:00;8.18;;;7.35;;
45296;SDS011;31040;51.622;10.420;2023-06-22T08:02:30;7.97;;;7.28;;
45296;SDS011;31040;51.622;10.420;2023-06-22T08:04:58;9.15;;;8.35;;
45296;SDS011;31040;51.622;10.420;2023-06-22T08:07:40;8.70;;;7.95;;
45296;SDS011;31040;51.622;10.420;2023-06-22T08:10:12;8.85;;;8.02;;
45296;SDS011;31040;51.622;10.420;2023-06-22T08:12:40;8.90;;;8.00;;
45296;SDS011;31040;51.622;10.420;2023-06-22T08:15:07;8.73;;;7.93;;
45296;SDS011;31040;51.622;10.420;2023-06-22T08:17:36;7.97;;;7.28;;
45296;SDS011;31040;51.622;10.420;2023-06-22T08:20:05;8.50;;;7.80;;
45296;SDS011;31040;51.622;10.420;2023-06-22T08:22:41;8.00;;;7.22;;
45296;SDS011;31040;51.622;10.420;2023-06-22T08:25:10;7.93;;;7.32;;
45296;SDS011;31040;51.622;10.420;2023-06-22T08:27:37;8.65;;;7.28;;
45296;SDS011;31040;51.622;10.420;2023-06-22T08:30:06;7.72;;;7.03;;
45296;SDS011;31040;51.622;10.420;2023-06-22T08:32:34;8.10;;;7.40;;
45296;SDS011;31040;51.622;10.420;2023-06-22T08:35:01;7.88;;;7.18;;
45296;SDS011;31040;51.622;10.420;2023-06-22T08:37:29;8.27;;;7.50;;
45296;SDS011;31040;51.622;10.420;2023-06-22T08:39:58;8.65;;;7.85;;
45296;SDS011;31040;51.622;10.420;2023-06-22T08:42:26;8.85;;;7.57;;
45296;SDS011;31040;51.622;10.420;2023-06-22T08:44:54;8.43;;;7.57;;
45296;SDS011;31040;51.622;10.420;2023-06-22T08:47:21;8.43;;;7.63;;
45296;SDS011;31040;51.622;10.420;2023-06-22T08:49:49;8.55;;;7.70;;
45296;SDS011;31040;51.622;10.420;2023-06-22T08:52:17;9.00;;;8.13;;
45296;SDS011;31040;51.622;10.420;2023-06-22T08:54:46;7.82;;;7.13;;
45296;SDS011;31040;51.622;10.420;2023-06-22T08:57:14;7.57;;;6.97;;
45296;SDS011;31040;51.622;10.420;2023-06-22T08:59:42;8.15;;;7.22;;
45296;SDS011;31040;51.622;10.420;2023-06-22T09:02:10;8.45;;;7.65;;
45296;SDS011;31040;51.622;10.420;2023-06-22T09:04:37;7.13;;;6.43;;
45296;SDS011;31040;51.622;10.420;2023-06-22T09:07:05;7.50;;;6.82;;
45296;SDS011;31040;51.622;10.420;2023-06-22T09:09:32;7.68;;;6.97;;
45296;SDS011;31040;51.622;10.420;2023-06-22T09:12:00;9.05;;;6.78;;
45296;SDS011;31040;51.622;10.420;2023-06-22T09:14:27;6.95;;;6.18;;
45296;SDS011;31040;51.622;10.420;2023-06-22T09:16:55;7.28;;;6.68;;
45296;SDS011;31040;51.622;10.420;2023-06-22T09:19:22;7.28;;;6.68;;
45296;SDS011;31040;51.622;10.420;2023-06-22T09:21:50;7.47;;;6.80;;
45296;SDS011;31040;51.622;10.420;2023-06-22T09:24:17;8.02;;;7.35;;
45296;SDS011;31040;51.622;10.420;2023-06-22T09:26:45;7.18;;;6.57;;
45296;SDS011;31040;51.622;10.420;2023-06-22T09:29:12;7.45;;;6.85;;
45296;SDS011;31040;51.622;10.420;2023-06-22T09:31:39;7.82;;;7.13;;
45296;SDS011;31040;51.622;10.420;2023-06-22T09:34:07;7.95;;;7.28;;
45296;SDS011;31040;51.622;10.420;2023-06-22T09:36:35;6.80;;;6.20;;
45296;SDS011;31040;51.622;10.420;2023-06-22T09:39:03;7.22;;;6.63;;
45296;SDS011;31040;51.622;10.420;2023-06-22T09:41:32;7.63;;;6.82;;
45296;SDS011;31040;51.622;10.420;2023-06-22T09:44:00;9.93;;;7.65;;
45296;SDS011;31040;51.622;10.420;2023-06-22T09:46:27;7.95;;;7.18;;
45296;SDS011;31040;51.622;10.420;2023-06-22T09:48:55;6.90;;;6.32;;
45296;SDS011;31040;51.622;10.420;2023-06-22T09:51:22;7.78;;;7.07;;
45296;SDS011;31040;51.622;10.420;2023-06-22T09:53:50;7.82;;;7.05;;
45296;SDS011;31040;51.622;10.420;2023-06-22T09:56:19;7.45;;;6.75;;
45296;SDS011;31040;51.622;10.420;2023-06-22T09:58:47;7.55;;;6.85;;
45296;SDS011;31040;51.622;10.420;2023-06-22T10:01:18;6.68;;;6.18;;
45296;SDS011;31040;51.622;10.420;2023-06-22T10:03:47;7.20;;;6.60;;
45296;SDS011;31040;51.622;10.420;2023-06-22T10:06:14;8.65;;;7.75;;
45296;SDS011;31040;51.622;10.420;2023-06-22T10:08:42;9.32;;;7.28;;
45296;SDS011;31040;51.622;10.420;2023-06-22T10:11:09;6.88;;;6.28;;
45296;SDS011;31040;51.622;10.420;2023-06-22T10:13:37;7.10;;;6.40;;
45296;SDS011;31040;51.622;10.420;2023-06-22T10:16:04;7.32;;;6.63;;
45296;SDS011;31040;51.622;10.420;2023-06-22T10:18:32;7.40;;;6.60;;
45296;SDS011;31040;51.622;10.420;2023-06-22T10:20:59;7.55;;;6.85;;
45296;SDS011;31040;51.622;10.420;2023-06-22T10:23:26;9.00;;;6.90;;
45296;SDS011;31040;51.622;10.420;2023-06-22T10:25:54;7.82;;;7.07;;
45296;SDS011;31040;51.622;10.420;2023-06-22T10:28:24;6.57;;;5.97;;
45296;SDS011;31040;51.622;10.420;2023-06-22T10:30:52;7.40;;;6.80;;
45296;SDS011;31040;51.622;10.420;2023-06-22T10:33:19;7.70;;;7.00;;
45296;SDS011;31040;51.622;10.420;2023-06-22T10:35:47;8.00;;;7.28;;
45296;SDS011;31040;51.622;10.420;2023-06-22T10:38:14;7.38;;;6.68;;
45296;SDS011;31040;51.622;10.420;2023-06-22T10:40:42;8.48;;;7.85;;
45296;SDS011;31040;51.622;10.420;2023-06-22T10:43:10;8.77;;;7.90;;
45296;SDS011;31040;51.622;10.420;2023-06-22T10:45:38;8.95;;;7.63;;
45296;SDS011;31040;51.622;10.420;2023-06-22T10:48:06;6.93;;;6.32;;
45296;SDS011;31040;51.622;10.420;2023-06-22T10:50:33;7.15;;;6.45;;
45296;SDS011;31040;51.622;10.420;2023-06-22T10:53:01;7.25;;;6.53;;
45296;SDS011;31040;51.622;10.420;2023-06-22T10:55:28;8.15;;;7.45;;
45296;SDS011;31040;51.622;10.420;2023-06-22T10:58:12;7.88;;;7.18;;
45296;SDS011;31040;51.622;10.420;2023-06-22T11:00:39;7.28;;;6.68;;
45296;SDS011;31040;51.622;10.420;2023-06-22T11:03:07;7.80;;;6.93;;
45296;SDS011;31040;51.622;10.420;2023-06-22T11:05:37;6.93;;;5.60;;
45296;SDS011;31040;51.622;10.420;2023-06-22T11:08:04;7.28;;;6.60;;
45296;SDS011;31040;51.622;10.420;2023-06-22T11:10:32;7.28;;;6.65;;
45296;SDS011;31040;51.622;10.420;2023-06-22T11:12:59;7.20;;;6.47;;
45296;SDS011;31040;51.622;10.420;2023-06-22T11:15:29;8.43;;;6.60;;
45296;SDS011;31040;51.622;10.420;2023-06-22T11:17:56;7.05;;;6.45;;
45296;SDS011;31040;51.622;10.420;2023-06-22T11:20:24;8.65;;;6.70;;
45296;SDS011;31040;51.622;10.420;2023-06-22T11:22:51;7.68;;;6.88;;
45296;SDS011;31040;51.622;10.420;2023-06-22T11:25:19;7.00;;;6.40;;
45296;SDS011;31040;51.622;10.420;2023-06-22T11:27:46;7.30;;;6.60;;
45296;SDS011;31040;51.622;10.420;2023-06-22T11:30:14;6.57;;;5.97;;
45296;SDS011;31040;51.622;10.420;2023-06-22T11:32:41;7.65;;;6.57;;
45296;SDS011;31040;51.622;10.420;2023-06-22T11:35:09;6.82;;;6.22;;
45296;SDS011;31040;51.622;10.420;2023-06-22T11:37:36;6.95;;;6.25;;
45296;SDS011;31040;51.622;10.420;2023-06-22T11:40:04;7.13;;;6.53;;
45296;SDS011;31040;51.622;10.420;2023-06-22T11:42:33;7.60;;;6.90;;
45296;SDS011;31040;51.622;10.420;2023-06-22T11:45:01;8.45;;;7.65;;
45296;SDS011;31040;51.622;10.420;2023-06-22T11:47:29;7.97;;;7.18;;
45296;SDS011;31040;51.622;10.420;2023-06-22T11:49:56;7.72;;;7.05;;
45296;SDS011;31040;51.622;10.420;2023-06-22T11:52:24;6.63;;;6.03;;
45296;SDS011;31040;51.622;10.420;2023-06-22T11:54:53;6.53;;;6.03;;
45296;SDS011;31040;51.622;10.420;2023-06-22T11:57:21;8.07;;;7.18;;
45296;SDS011;31040;51.622;10.420;2023-06-22T11:59:48;7.70;;;7.00;;
45296;SDS011;31040;51.622;10.420;2023-06-22T12:02:16;8.07;;;7.25;;
45296;SDS011;31040;51.622;10.420;2023-06-22T12:04:43;7.57;;;6.88;;
45296;SDS011;31040;51.622;10.420;2023-06-22T12:07:10;7.22;;;6.53;;
45296;SDS011;31040;51.622;10.420;2023-06-22T12:09:38;7.15;;;6.45;;
45296;SDS011;31040;51.622;10.420;2023-06-22T12:12:05;6.95;;;6.35;;
45296;SDS011;31040;51.622;10.420;2023-06-22T12:14:33;7.57;;;6.88;;
45296;SDS011;31040;51.622;10.420;2023-06-22T12:17:00;7.68;;;6.88;;
45296;SDS011;31040;51.622;10.420;2023-06-22T12:19:41;7.22;;;6.55;;
45296;SDS011;31040;51.622;10.420;2023-06-22T12:22:21;7.40;;;6.70;;
45296;SDS011;31040;51.622;10.420;2023-06-22T12:24:48;8.55;;;7.63;;
45296;SDS011;31040;51.622;10.420;2023-06-22T12:27:17;8.70;;;7.80;;
45296;SDS011;31040;51.622;10.420;2023-06-22T12:29:47;8.98;;;7.13;;
45296;SDS011;31040;51.622;10.420;2023-06-22T12:32:14;7.72;;;7.05;;
45296;SDS011;31040;51.622;10.420;2023-06-22T12:34:42;6.55;;;6.05;;
45296;SDS011;31040;51.622;10.420;2023-06-22T12:37:10;7.15;;;6.55;;
45296;SDS011;31040;51.622;10.420;2023-06-22T12:39:40;7.40;;;6.75;;
45296;SDS011;31040;51.622;10.420;2023-06-22T12:42:08;8.20;;;7.50;;
45296;SDS011;31040;51.622;10.420;2023-06-22T12:44:38;7.97;;;7.28;;
45296;SDS011;31040;51.622;10.420;2023-06-22T12:47:10;8.25;;;7.55;;
45296;SDS011;31040;51.622;10.420;2023-06-22T12:49:44;8.35;;;7.55;;
45296;SDS011;31040;51.622;10.420;2023-06-22T12:52:32;8.32;;;7.63;;
45296;SDS011;31040;51.622;10.420;2023-06-22T12:57:29;8.50;;;7.80;;
45296;SDS011;31040;51.622;10.420;2023-06-22T12:59:57;8.55;;;7.65;;
45296;SDS011;31040;51.622;10.420;2023-06-22T13:02:26;9.38;;;8.68;;
45296;SDS011;31040;51.622;10.420;2023-06-22T13:04:55;10.13;;;9.13;;
45296;SDS011;31040;51.622;10.420;2023-06-22T13:07:22;8.20;;;7.50;;
45296;SDS011;31040;51.622;10.420;2023-06-22T13:09:50;10.45;;;9.35;;
45296;SDS011;31040;51.622;10.420;2023-06-22T13:12:20;9.23;;;8.43;;
45296;SDS011;31040;51.622;10.420;2023-06-22T13:14:48;9.75;;;8.90;;
45296;SDS011;31040;51.622;10.420;2023-06-22T13:17:15;8.63;;;7.93;;
45296;SDS011;31040;51.622;10.420;2023-06-22T13:19:43;8.07;;;7.32;;
45296;SDS011;31040;51.622;10.420;2023-06-22T13:22:30;11.52;;;8.52;;
45296;SDS011;31040;51.622;10.420;2023-06-22T13:24:57;8.05;;;7.35;;
45296;SDS011;31040;51.622;10.420;2023-06-22T13:27:25;8.77;;;7.93;;
45296;SDS011;31040;51.622;10.420;2023-06-22T13:29:53;9.02;;;8.13;;
45296;SDS011;31040;51.622;10.420;2023-06-22T13:32:23;8.93;;;8.13;;
45296;SDS011;31040;51.622;10.420;2023-06-22T13:35:00;9.82;;;8.32;;
45296;SDS011;31040;51.622;10.420;2023-06-22T13:37:41;8.60;;;7.80;;
45296;SDS011;31040;51.622;10.420;2023-06-22T13:40:08;7.97;;;7.30;;
45296;SDS011;31040;51.622;10.420;2023-06-22T13:42:36;8.27;;;7.57;;
45296;SDS011;31040;51.622;10.420;2023-06-22T13:45:04;8.02;;;7.20;;
45296;SDS011;31040;51.622;10.420;2023-06-22T13:47:31;9.15;;;8.18;;
45296;SDS011;31040;51.622;10.420;2023-06-22T13:50:02;7.88;;;7.20;;
45296;SDS011;31040;51.622;10.420;2023-06-22T13:52:29;8.10;;;7.30;;
45296;SDS011;31040;51.622;10.420;2023-06-22T13:54:57;8.40;;;7.57;;
45296;SDS011;31040;51.622;10.420;2023-06-22T13:57:24;10.23;;;8.30;;
45296;SDS011;31040;51.622;10.420;2023-06-22T13:59:52;9.68;;;7.63;;
45296;SDS011;31040;51.622;10.420;2023-06-22T14:02:19;8.60;;;7.90;;
45296;SDS011;31040;51.622;10.420;2023-06-22T14:04:47;8.60;;;7.00;;
45296;SDS011;31040;51.622;10.420;2023-06-22T14:07:14;8.70;;;7.50;;
45296;SDS011;31040;51.622;10.420;2023-06-22T14:09:42;8.98;;;7.65;;
45296;SDS011;31040;51.622;10.420;2023-06-22T14:12:10;10.60;;;7.68;;
45296;SDS011;31040;51.622;10.420;2023-06-22T14:14:37;8.18;;;7.47;;
45296;SDS011;31040;51.622;10.420;2023-06-22T14:17:05;9.02;;;8.23;;
45296;SDS011;31040;51.622;10.420;2023-06-22T14:19:32;8.88;;;8.00;;
45296;SDS011;31040;51.622;10.420;2023-06-22T14:22:00;8.70;;;7.80;;
45296;SDS011;31040;51.622;10.420;2023-06-22T14:24:27;8.65;;;7.43;;
45296;SDS011;31040;51.622;10.420;2023-06-22T14:26:56;8.32;;;7.60;;
45296;SDS011;31040;51.622;10.420;2023-06-22T14:29:24;8.38;;;7.57;;
45296;SDS011;31040;51.622;10.420;2023-06-22T14:31:52;8.30;;;7.50;;
45296;SDS011;31040;51.622;10.420;2023-06-22T14:34:19;8.00;;;7.20;;
45296;SDS011;31040;51.622;10.420;2023-06-22T14:36:47;8.57;;;7.70;;
45296;SDS011;31040;51.622;10.420;2023-06-22T14:39:14;8.95;;;8.05;;
45296;SDS011;31040;51.622;10.420;2023-06-22T14:41:42;8.60;;;7.43;;
45296;SDS011;31040;51.622;10.420;2023-06-22T14:44:09;7.57;;;6.97;;